createdAt,value
2022-11-06T00:00:38.417Z,69.36
2022-11-06T00:01:42.918Z,69.43
2022-11-06T00:02:46.443Z,69.42
2022-11-06T00:03:48.811Z,69.57
2022-11-06T00:04:51.042Z,69.47
2022-11-06T00:06:11.629Z,69.55
2022-11-06T00:07:13.817Z,69.66
2022-11-06T00:08:16.737Z,69.59
2022-11-06T00:09:20.978Z,69.83
2022-11-06T00:10:24.007Z,69.76
2022-11-06T00:11:26.536Z,69.77
2022-11-06T00:12:28.738Z,69.76
2022-11-06T00:13:32.293Z,69.90
2022-11-06T00:14:35.416Z,69.74
2022-11-06T00:15:37.700Z,70.07
2022-11-06T00:16:41.395Z,69.97
2022-11-06T00:17:43.624Z,69.98
2022-11-06T00:18:46.186Z,70.08
2022-11-06T00:19:48.363Z,70.17
2022-11-06T00:20:50.576Z,69.99
2022-11-06T00:21:54.549Z,70.06
2022-11-06T00:23:00.603Z,70.38
2022-11-06T00:24:05.445Z,70.32
2022-11-06T00:25:08.070Z,70.30
2022-11-06T00:26:14.615Z,70.13
2022-11-06T00:27:17.129Z,70.41
2022-11-06T00:28:27.591Z,70.26
2022-11-06T00:29:29.828Z,70.19
2022-11-06T00:30:32.016Z,70.24
2022-11-06T00:31:37.496Z,70.40
2022-11-06T00:32:40.124Z,70.32
2022-11-06T00:33:42.836Z,70.34
2022-11-06T00:34:45.126Z,70.60
2022-11-06T00:35:47.627Z,70.40
2022-11-06T00:36:49.946Z,70.51
2022-11-06T00:37:52.128Z,70.55
2022-11-06T00:38:55.608Z,70.61
2022-11-06T00:39:59.552Z,70.35
2022-11-06T00:41:08.785Z,70.59
2022-11-06T00:42:11.008Z,70.58
2022-11-06T00:43:13.211Z,70.56
2022-11-06T00:44:15.436Z,70.49
2022-11-06T00:45:17.673Z,70.42
2022-11-06T00:46:19.931Z,70.78
2022-11-06T00:47:22.212Z,70.54
2022-11-06T00:48:24.370Z,70.62
2022-11-06T00:49:28.002Z,70.48
2022-11-06T00:50:30.219Z,70.44
2022-11-06T00:51:38.489Z,70.57
2022-11-06T00:52:40.696Z,70.49
2022-11-06T00:53:44.053Z,70.36
2022-11-06T00:54:48.659Z,70.41
2022-11-06T00:55:53.105Z,70.43
2022-11-06T00:56:58.156Z,70.34
2022-11-06T00:58:00.415Z,70.34
2022-11-06T00:59:06.044Z,70.29
2022-11-06T01:00:08.831Z,70.25
2022-11-06T01:01:17.153Z,70.37
2022-11-06T01:02:21.244Z,70.36
2022-11-06T01:03:23.563Z,70.27
2022-11-06T01:04:26.582Z,70.27
2022-11-06T01:05:36.054Z,70.29
2022-11-06T01:06:49.873Z,70.18
2022-11-06T01:07:52.320Z,70.31
2022-11-06T01:08:54.706Z,70.22
2022-11-06T01:10:00.579Z,70.13
2022-11-06T01:11:15.946Z,70.18
2022-11-06T01:12:18.717Z,70.01
2022-11-06T01:13:22.625Z,70.14
2022-11-06T01:14:25.900Z,70.04
2022-11-06T01:15:28.182Z,70.03
2022-11-06T01:16:31.006Z,69.97
2022-11-06T01:17:38.595Z,70.17
2022-11-06T01:18:43.300Z,70.03
2022-11-06T01:19:45.561Z,70.03
2022-11-06T01:20:50.862Z,69.90
2022-11-06T01:21:53.999Z,69.91
2022-11-06T01:22:56.245Z,69.72
2022-11-06T01:24:05.397Z,69.70
2022-11-06T01:25:08.525Z,69.62
2022-11-06T01:26:12.600Z,69.69
2022-11-06T01:27:30.045Z,69.87
2022-11-06T01:28:33.090Z,69.60
2022-11-06T01:29:35.411Z,69.70
2022-11-06T01:30:37.660Z,69.77
2022-11-06T01:31:43.255Z,69.70
2022-11-06T01:32:45.459Z,69.75
2022-11-06T01:33:55.672Z,69.77
2022-11-06T01:34:57.899Z,69.72
2022-11-06T01:36:00.144Z,69.65
2022-11-06T01:37:02.413Z,69.55
2022-11-06T01:38:07.145Z,69.75
2022-11-06T01:39:12.736Z,69.55
2022-11-06T01:40:15.044Z,69.65
2022-11-06T01:41:25.803Z,69.69
2022-11-06T01:42:28.187Z,69.59
2022-11-06T01:44:01.261Z,69.60
2022-11-06T01:45:35.515Z,69.55
2022-11-06T01:46:37.977Z,69.60
2022-11-06T01:47:40.407Z,69.58
2022-11-06T01:48:49.138Z,69.67
2022-11-06T01:49:55.675Z,69.53
2022-11-06T01:50:58.680Z,69.62
2022-11-06T01:52:21.610Z,69.61
2022-11-06T01:53:24.971Z,69.64
2022-11-06T01:54:30.616Z,69.61
2022-11-06T01:55:38.198Z,69.61
2022-11-06T01:56:42.856Z,69.52
2022-11-06T01:57:46.210Z,69.65
2022-11-06T01:58:52.556Z,69.67
2022-11-06T01:59:55.645Z,69.60
2022-11-06T02:00:58.273Z,69.66
2022-11-06T02:02:00.687Z,69.59
2022-11-06T02:03:04.327Z,69.63
2022-11-06T02:04:36.296Z,69.63
2022-11-06T02:05:39.657Z,69.56
2022-11-06T02:06:42.183Z,69.56
2022-11-06T02:07:45.317Z,69.59
2022-11-06T02:08:47.617Z,69.60
2022-11-06T02:09:49.828Z,69.46
2022-11-06T02:10:53.102Z,69.47
2022-11-06T02:12:18.604Z,69.40
2022-11-06T02:13:39.236Z,69.26
2022-11-06T02:15:20.041Z,69.41
2022-11-06T02:16:26.906Z,69.43
2022-11-06T02:17:34.971Z,69.21
2022-11-06T02:18:46.277Z,69.39
2022-11-06T02:20:01.009Z,69.41
2022-11-06T02:21:15.444Z,69.41
2022-11-06T02:22:36.565Z,69.39
2022-11-06T02:23:47.801Z,69.37
2022-11-06T02:25:26.557Z,69.34
2022-11-06T02:26:53.722Z,69.43
2022-11-06T02:28:09.579Z,69.28
2022-11-06T02:29:33.224Z,69.28
2022-11-06T02:30:44.487Z,69.27
2022-11-06T02:31:52.580Z,69.25
2022-11-06T02:33:00.355Z,69.36
2022-11-06T02:34:12.366Z,69.42
2022-11-06T02:35:28.847Z,69.43
2022-11-06T02:36:35.688Z,69.45
2022-11-06T02:37:41.790Z,69.42
2022-11-06T02:38:50.361Z,69.58
2022-11-06T02:39:55.612Z,69.37
2022-11-06T02:41:03.250Z,69.44
2022-11-06T02:42:10.335Z,69.54
2022-11-06T02:43:15.289Z,69.54
2022-11-06T02:44:23.644Z,69.59
2022-11-06T02:45:30.000Z,69.44
2022-11-06T02:47:03.239Z,69.62
2022-11-06T02:48:09.319Z,69.45
2022-11-06T02:49:23.864Z,69.63
2022-11-06T02:50:33.068Z,69.45
2022-11-06T02:51:42.134Z,69.55
2022-11-06T02:52:53.196Z,69.61
2022-11-06T02:54:01.065Z,69.39
2022-11-06T02:55:08.415Z,69.46
2022-11-06T02:56:15.088Z,69.37
2022-11-06T02:57:20.358Z,69.44
2022-11-06T02:58:43.609Z,69.63
2022-11-06T03:00:02.740Z,69.51
2022-11-06T03:01:28.289Z,69.50
2022-11-06T03:02:37.422Z,69.60
2022-11-06T03:03:43.877Z,69.43
2022-11-06T03:04:58.192Z,69.48
2022-11-06T03:06:20.946Z,69.47
2022-11-06T03:07:44.732Z,69.58
2022-11-06T03:08:59.630Z,69.64
2022-11-06T03:10:02.675Z,69.54
2022-11-06T03:11:12.258Z,69.56
2022-11-06T03:12:35.903Z,69.65
2022-11-06T03:13:56.537Z,69.51
2022-11-06T03:15:27.900Z,69.61
2022-11-06T03:16:51.428Z,69.51
2022-11-06T03:18:13.475Z,69.55
2022-11-06T03:19:27.921Z,69.56
2022-11-06T03:20:37.313Z,69.51
2022-11-06T03:22:09.004Z,69.49
2022-11-06T03:23:33.307Z,69.50
2022-11-06T03:24:50.329Z,69.61
2022-11-06T03:26:27.065Z,69.66
2022-11-06T03:27:35.962Z,69.58
2022-11-06T03:28:44.674Z,69.60
2022-11-06T03:30:16.980Z,69.57
2022-11-06T03:31:28.011Z,69.62
2022-11-06T03:32:37.149Z,69.59
2022-11-06T03:33:48.966Z,69.63
2022-11-06T03:35:00.580Z,69.51
2022-11-06T03:36:32.641Z,69.65
2022-11-06T03:37:45.324Z,69.78
2022-11-06T03:38:52.201Z,69.55
2022-11-06T03:39:58.117Z,69.56
2022-11-06T03:41:06.975Z,69.59
2022-11-06T03:42:17.236Z,69.54
2022-11-06T03:43:25.246Z,69.62
2022-11-06T03:44:28.879Z,69.44
2022-11-06T03:45:33.685Z,69.63
2022-11-06T03:46:40.548Z,69.52
2022-11-06T03:47:48.310Z,69.66
2022-11-06T03:48:58.765Z,69.54
2022-11-06T03:50:09.205Z,69.43
2022-11-06T03:51:22.665Z,69.48
2022-11-06T03:52:33.528Z,69.47
2022-11-06T03:53:45.228Z,69.65
2022-11-06T03:54:58.243Z,69.44
2022-11-06T03:56:08.059Z,69.48
2022-11-06T03:57:16.464Z,69.56
2022-11-06T03:58:28.368Z,69.46
2022-11-06T03:59:38.204Z,69.65
2022-11-06T04:00:42.595Z,69.49
2022-11-06T04:01:47.622Z,69.56
2022-11-06T04:03:05.389Z,69.56
2022-11-06T04:04:17.873Z,69.55
2022-11-06T04:05:23.170Z,69.61
2022-11-06T04:06:50.150Z,69.51
2022-11-06T04:08:15.236Z,69.62
2022-11-06T04:09:39.029Z,69.43
2022-11-06T04:11:07.617Z,69.53
2022-11-06T04:12:32.468Z,69.47
2022-11-06T04:13:57.157Z,69.46
2022-11-06T04:15:00.165Z,69.48
2022-11-06T04:16:03.391Z,69.51
2022-11-06T04:17:10.264Z,69.61
2022-11-06T04:18:31.781Z,69.56
2022-11-06T04:19:36.572Z,69.49
2022-11-06T04:21:06.382Z,69.44
2022-11-06T04:22:18.428Z,69.63
2022-11-06T04:23:39.419Z,69.63
2022-11-06T04:25:27.270Z,69.58
2022-11-06T04:26:35.880Z,69.59
2022-11-06T04:28:05.325Z,69.65
2022-11-06T04:29:33.124Z,69.62
2022-11-06T04:30:45.335Z,69.60
2022-11-06T04:32:01.810Z,69.55
2022-11-06T04:33:32.030Z,69.65
2022-11-06T04:35:05.718Z,69.73
2022-11-06T04:36:31.505Z,69.78
2022-11-06T04:37:33.691Z,69.67
2022-11-06T04:39:02.536Z,69.69
2022-11-06T04:40:30.528Z,69.66
2022-11-06T04:41:51.543Z,69.68
2022-11-06T04:43:06.367Z,69.79
2022-11-06T04:44:24.495Z,69.84
2022-11-06T04:45:36.184Z,69.66
2022-11-06T04:46:55.894Z,69.72
2022-11-06T04:47:59.510Z,69.82
2022-11-06T04:49:04.707Z,69.67
2022-11-06T04:50:09.609Z,69.70
2022-11-06T04:51:14.522Z,69.87
2022-11-06T04:52:26.821Z,69.68
2022-11-06T04:53:32.164Z,69.86
2022-11-06T04:54:35.583Z,69.90
2022-11-06T04:56:01.781Z,69.88
2022-11-06T04:57:10.865Z,69.94
2022-11-06T04:58:13.484Z,69.89
2022-11-06T04:59:18.143Z,69.92
2022-11-06T05:00:20.478Z,69.69
2022-11-06T05:01:22.861Z,69.86
2022-11-06T05:02:25.436Z,69.74
2022-11-06T05:03:27.715Z,69.80
2022-11-06T05:04:30.700Z,69.82
2022-11-06T05:05:34.654Z,69.72
2022-11-06T05:06:36.891Z,69.74
2022-11-06T05:07:39.274Z,69.71
2022-11-06T05:08:41.700Z,69.71
2022-11-06T05:09:45.766Z,69.74
2022-11-06T05:10:48.241Z,69.85
2022-11-06T05:11:50.541Z,69.76
2022-11-06T05:12:52.845Z,69.85
2022-11-06T05:13:55.096Z,69.85
2022-11-06T05:14:57.379Z,69.76
2022-11-06T05:16:00.182Z,69.67
2022-11-06T05:17:02.605Z,69.71
2022-11-06T05:18:05.971Z,69.63
2022-11-06T05:19:08.323Z,69.66
2022-11-06T05:20:10.898Z,69.70
2022-11-06T05:21:31.670Z,69.75
2022-11-06T05:22:52.659Z,69.66
2022-11-06T05:23:54.884Z,69.68
2022-11-06T05:24:59.320Z,69.60
2022-11-06T05:26:02.316Z,69.84
2022-11-06T05:27:04.657Z,69.60
2022-11-06T05:28:08.368Z,69.64
2022-11-06T05:29:13.293Z,69.62
2022-11-06T05:30:18.099Z,69.58
2022-11-06T05:31:22.596Z,69.59
2022-11-06T05:32:24.813Z,69.59
2022-11-06T05:33:27.037Z,69.64
2022-11-06T05:34:29.314Z,69.73
2022-11-06T05:35:31.528Z,69.51
2022-11-06T05:36:33.872Z,69.55
2022-11-06T05:37:36.063Z,69.66
2022-11-06T05:38:38.317Z,69.66
2022-11-06T05:39:42.047Z,69.43
2022-11-06T05:40:44.393Z,69.55
2022-11-06T05:41:46.653Z,69.58
2022-11-06T05:42:48.888Z,69.49
2022-11-06T05:43:51.314Z,69.44
2022-11-06T05:44:53.730Z,69.51
2022-11-06T05:45:56.043Z,69.46
2022-11-06T05:46:59.001Z,69.59
2022-11-06T05:48:01.232Z,69.37
2022-11-06T05:49:03.446Z,69.49
2022-11-06T05:50:06.184Z,69.42
2022-11-06T05:51:09.063Z,69.42
2022-11-06T05:52:11.302Z,69.47
2022-11-06T05:53:13.910Z,69.33
2022-11-06T05:54:16.163Z,69.45
2022-11-06T05:55:21.576Z,69.28
2022-11-06T05:56:23.966Z,69.35
2022-11-06T05:57:26.191Z,69.32
2022-11-06T05:58:28.444Z,69.36
2022-11-06T05:59:30.698Z,69.39
2022-11-06T06:00:32.965Z,69.22
2022-11-06T06:01:35.322Z,69.49
2022-11-06T06:02:38.095Z,69.45
2022-11-06T06:03:42.732Z,69.26
2022-11-06T06:04:44.935Z,69.28
2022-11-06T06:05:48.109Z,69.18
2022-11-06T06:06:50.377Z,69.23
2022-11-06T06:07:52.596Z,69.25
2022-11-06T06:08:54.875Z,69.36
2022-11-06T06:09:57.168Z,69.33
2022-11-06T06:10:59.604Z,69.35
2022-11-06T06:12:01.924Z,69.24
2022-11-06T06:13:04.414Z,69.23
2022-11-06T06:14:06.648Z,69.22
2022-11-06T06:15:09.279Z,69.43
2022-11-06T06:16:11.553Z,69.46
2022-11-06T06:17:13.777Z,69.43
2022-11-06T06:18:16.297Z,69.25
2022-11-06T06:19:18.770Z,69.36
2022-11-06T06:20:21.018Z,69.42
2022-11-06T06:21:23.192Z,69.42
2022-11-06T06:22:25.481Z,69.53
2022-11-06T06:23:28.585Z,69.45
2022-11-06T06:24:30.883Z,69.41
2022-11-06T06:25:33.257Z,69.53
2022-11-06T06:26:35.487Z,69.53
2022-11-06T06:27:37.862Z,69.57
2022-11-06T06:28:40.113Z,69.62
2022-11-06T06:29:42.318Z,69.57
2022-11-06T06:30:44.534Z,69.59
2022-11-06T06:31:46.720Z,69.49
2022-11-06T06:32:50.120Z,69.66
2022-11-06T06:33:52.388Z,69.60
2022-11-06T06:34:54.603Z,69.70
2022-11-06T06:35:56.885Z,69.71
2022-11-06T06:36:59.101Z,69.74
2022-11-06T06:38:01.527Z,69.64
2022-11-06T06:39:04.043Z,69.76
2022-11-06T06:40:07.070Z,69.88
2022-11-06T06:41:09.721Z,69.89
2022-11-06T06:42:11.940Z,70.00
2022-11-06T06:43:14.237Z,70.13
2022-11-06T06:44:16.729Z,70.33
2022-11-06T06:45:18.961Z,70.43
2022-11-06T06:46:21.225Z,70.69
2022-11-06T06:47:23.688Z,70.92
2022-11-06T06:48:26.294Z,71.04
2022-11-06T06:49:28.521Z,71.33
2022-11-06T06:50:32.420Z,71.40
2022-11-06T06:51:34.632Z,71.50
2022-11-06T06:52:36.793Z,71.65
2022-11-06T06:53:39.145Z,71.75
2022-11-06T06:54:41.409Z,71.98
2022-11-06T06:55:43.642Z,72.00
2022-11-06T06:56:48.468Z,71.66
2022-11-06T06:57:59.477Z,71.61
2022-11-06T06:59:05.005Z,71.35
2022-11-06T07:00:08.029Z,71.09
2022-11-06T07:01:11.092Z,71.07
2022-11-06T07:02:13.648Z,70.90
2022-11-06T07:03:15.968Z,70.57
2022-11-06T07:04:18.297Z,70.46
2022-11-06T07:05:20.779Z,70.33
2022-11-06T07:06:23.010Z,70.25
2022-11-06T07:07:25.381Z,70.28
2022-11-06T07:08:28.380Z,70.53
2022-11-06T07:09:32.078Z,70.80
2022-11-06T07:10:34.277Z,70.99
2022-11-06T07:11:36.617Z,71.09
2022-11-06T07:12:38.940Z,70.95
2022-11-06T07:13:41.141Z,71.36
2022-11-06T07:14:43.406Z,71.61
2022-11-06T07:15:45.680Z,71.78
2022-11-06T07:16:53.486Z,72.00
2022-11-06T07:17:56.231Z,72.05
2022-11-06T07:18:59.309Z,71.93
2022-11-06T07:20:04.132Z,71.96
2022-11-06T07:21:08.929Z,71.84
2022-11-06T07:22:11.263Z,71.87
2022-11-06T07:23:14.292Z,71.47
2022-11-06T07:24:20.084Z,71.59
2022-11-06T07:25:22.289Z,71.37
2022-11-06T07:26:24.633Z,71.79
2022-11-06T07:27:27.084Z,72.12
2022-11-06T07:28:29.295Z,72.13
2022-11-06T07:29:31.465Z,72.33
2022-11-06T07:30:35.409Z,71.85
2022-11-06T07:31:37.611Z,71.69
2022-11-06T07:32:39.915Z,71.61
2022-11-06T07:33:42.182Z,71.23
2022-11-06T07:34:46.088Z,70.56
2022-11-06T07:35:48.327Z,70.16
2022-11-06T07:36:50.527Z,69.60
2022-11-06T07:37:52.869Z,69.23
2022-11-06T07:38:55.112Z,68.76
2022-11-06T07:39:57.597Z,68.67
2022-11-06T07:41:03.430Z,67.87
2022-11-06T07:42:05.738Z,67.86
2022-11-06T07:43:12.174Z,67.35
2022-11-06T07:44:14.460Z,66.90
2022-11-06T07:45:16.721Z,66.24
2022-11-06T07:46:21.676Z,66.00
2022-11-06T07:47:23.899Z,65.79
2022-11-06T07:48:26.278Z,65.39
2022-11-06T07:49:28.498Z,65.21
2022-11-06T07:50:31.106Z,64.79
2022-11-06T07:51:33.312Z,64.58
2022-11-06T07:52:35.594Z,64.42
2022-11-06T07:53:38.909Z,64.19
2022-11-06T07:54:41.175Z,63.92
2022-11-06T07:55:51.751Z,63.70
2022-11-06T07:56:53.960Z,63.57
2022-11-06T07:57:56.162Z,63.58
2022-11-06T07:58:58.419Z,63.64
2022-11-06T08:00:00.680Z,63.59
2022-11-06T08:01:03.624Z,63.35
2022-11-06T08:02:06.039Z,63.07
2022-11-06T08:03:08.295Z,62.88
2022-11-06T08:04:11.085Z,62.66
2022-11-06T08:05:13.400Z,62.50
2022-11-06T08:06:15.698Z,62.46
2022-11-06T08:07:17.916Z,62.39
2022-11-06T08:08:20.151Z,62.52
2022-11-06T08:09:22.366Z,62.15
2022-11-06T08:10:24.629Z,61.83
2022-11-06T08:11:27.754Z,61.39
2022-11-06T08:12:29.964Z,60.92
2022-11-06T08:13:37.153Z,60.83
2022-11-06T08:14:41.522Z,60.49
2022-11-06T08:15:44.697Z,60.67
2022-11-06T08:16:46.936Z,60.50
2022-11-06T08:17:49.145Z,60.08
2022-11-06T08:18:51.437Z,59.66
2022-11-06T08:19:55.866Z,59.51
2022-11-06T08:20:58.021Z,59.51
2022-11-06T08:22:00.227Z,59.37
2022-11-06T08:23:05.137Z,59.20
2022-11-06T08:24:07.500Z,59.01
2022-11-06T08:25:09.784Z,59.21
2022-11-06T08:26:12.713Z,59.24
2022-11-06T08:27:14.908Z,59.22
2022-11-06T08:28:17.148Z,59.42
2022-11-06T08:29:19.356Z,59.34
2022-11-06T08:30:21.775Z,59.24
2022-11-06T08:31:24.572Z,59.20
2022-11-06T08:32:28.602Z,58.88
2022-11-06T08:33:30.816Z,58.95
2022-11-06T08:34:35.205Z,58.60
2022-11-06T08:35:38.146Z,58.44
2022-11-06T08:36:50.397Z,58.16
2022-11-06T08:37:52.703Z,58.29
2022-11-06T08:38:54.903Z,57.95
2022-11-06T08:39:57.086Z,57.88
2022-11-06T08:41:06.071Z,57.46
2022-11-06T08:42:08.349Z,57.35
2022-11-06T08:43:11.067Z,57.19
2022-11-06T08:44:13.573Z,57.11
2022-11-06T08:45:15.832Z,56.99
2022-11-06T08:46:18.092Z,57.05
2022-11-06T08:47:20.280Z,56.81
2022-11-06T08:48:22.589Z,56.56
2022-11-06T08:49:24.790Z,56.53
2022-11-06T08:50:27.101Z,56.71
2022-11-06T08:51:29.329Z,56.44
2022-11-06T08:52:34.452Z,56.74
2022-11-06T08:53:36.825Z,56.47
2022-11-06T08:54:39.064Z,55.95
2022-11-06T08:55:42.330Z,55.67
2022-11-06T08:56:44.525Z,55.78
2022-11-06T08:57:46.689Z,55.90
2022-11-06T08:58:54.333Z,55.57
2022-11-06T08:59:57.831Z,55.50
2022-11-06T09:01:00.075Z,55.28
2022-11-06T09:02:03.115Z,55.05
2022-11-06T09:03:08.119Z,55.18
2022-11-06T09:04:10.376Z,55.05
2022-11-06T09:05:12.604Z,54.96
2022-11-06T09:06:14.806Z,54.88
2022-11-06T09:07:17.592Z,54.51
2022-11-06T09:08:22.511Z,54.49
2022-11-06T09:09:32.061Z,54.84
2022-11-06T09:10:34.374Z,54.53
2022-11-06T09:11:36.621Z,54.64
2022-11-06T09:12:39.581Z,54.08
2022-11-06T09:13:41.861Z,54.51
2022-11-06T09:14:44.127Z,54.34
2022-11-06T09:15:46.348Z,54.33
2022-11-06T09:16:48.563Z,54.21
2022-11-06T09:17:52.257Z,54.03
2022-11-06T09:18:55.650Z,53.89
2022-11-06T09:19:57.884Z,53.67
2022-11-06T09:21:00.124Z,53.56
2022-11-06T09:22:02.448Z,53.10
2022-11-06T09:23:07.389Z,52.64
2022-11-06T09:24:09.921Z,52.40
2022-11-06T09:25:12.586Z,52.49
2022-11-06T09:26:16.642Z,52.53
2022-11-06T09:27:18.821Z,52.33
2022-11-06T09:28:21.062Z,52.15
2022-11-06T09:29:23.261Z,52.14
2022-11-06T09:30:26.613Z,52.37
2022-11-06T09:31:28.827Z,52.52
2022-11-06T09:32:31.062Z,52.40
2022-11-06T09:33:33.878Z,52.28
2022-11-06T09:34:36.130Z,52.40
2022-11-06T09:35:38.407Z,52.22
2022-11-06T09:36:40.610Z,52.27
2022-11-06T09:37:42.821Z,52.36
2022-11-06T09:38:45.013Z,52.37
2022-11-06T09:39:49.416Z,52.60
2022-11-06T09:40:55.300Z,52.05
2022-11-06T09:42:01.985Z,51.68
2022-11-06T09:43:15.152Z,51.39
2022-11-06T09:44:55.106Z,51.71
2022-11-06T09:46:07.227Z,51.87
2022-11-06T09:47:34.497Z,51.96
2022-11-06T09:48:43.705Z,51.35
2022-11-06T09:49:56.387Z,51.53
2022-11-06T09:51:06.718Z,50.99
2022-11-06T09:52:19.210Z,50.98
2022-11-06T09:53:31.667Z,50.95
2022-11-06T09:54:40.565Z,50.78
2022-11-06T09:55:45.006Z,50.61
2022-11-06T09:56:51.434Z,50.81
2022-11-06T09:58:12.678Z,51.01
2022-11-06T09:59:18.874Z,50.54
2022-11-06T10:00:22.082Z,50.53
2022-11-06T10:01:36.219Z,50.47
2022-11-06T10:02:47.893Z,50.45
2022-11-06T10:04:04.161Z,50.41
2022-11-06T10:05:21.557Z,50.63
2022-11-06T10:06:26.533Z,50.54
2022-11-06T10:07:33.062Z,50.53
2022-11-06T10:08:35.742Z,50.67
2022-11-06T10:09:38.498Z,50.76
2022-11-06T10:10:50.350Z,50.92
2022-11-06T10:12:09.548Z,50.88
2022-11-06T10:13:45.914Z,50.52
2022-11-06T10:15:18.101Z,50.65
2022-11-06T10:16:23.215Z,50.41
2022-11-06T10:17:45.114Z,50.80
2022-11-06T10:18:55.260Z,50.42
2022-11-06T10:20:25.400Z,50.92
2022-11-06T10:21:51.746Z,50.27
2022-11-06T10:23:03.077Z,50.51
2022-11-06T10:24:33.514Z,50.14
2022-11-06T10:25:58.638Z,50.08
2022-11-06T10:27:04.778Z,49.90
2022-11-06T10:28:31.725Z,50.07
2022-11-06T10:29:47.892Z,49.81
2022-11-06T10:31:20.917Z,49.95
2022-11-06T10:32:29.236Z,49.76
2022-11-06T10:33:53.091Z,50.27
2022-11-06T10:35:03.188Z,50.17
2022-11-06T10:36:18.360Z,50.29
2022-11-06T10:37:35.731Z,50.54
2022-11-06T10:38:45.546Z,50.26
2022-11-06T10:39:49.750Z,50.11
2022-11-06T10:40:54.168Z,49.81
2022-11-06T10:42:02.199Z,50.21
2022-11-06T10:43:22.940Z,50.18
2022-11-06T10:44:33.124Z,50.17
2022-11-06T10:45:39.428Z,50.25
2022-11-06T10:46:48.682Z,50.35
2022-11-06T10:48:09.990Z,50.02
2022-11-06T10:49:23.829Z,49.68
2022-11-06T10:50:34.349Z,49.82
2022-11-06T10:51:42.690Z,49.53
2022-11-06T10:53:04.958Z,49.72
2022-11-06T10:54:27.271Z,50.17
2022-11-06T10:55:45.643Z,49.67
2022-11-06T10:57:07.006Z,50.15
2022-11-06T10:58:14.906Z,50.18
2022-11-06T10:59:17.847Z,50.28
2022-11-06T11:00:20.176Z,49.93
2022-11-06T11:01:23.193Z,49.43
2022-11-06T11:02:31.305Z,49.12
2022-11-06T11:03:42.782Z,49.33
2022-11-06T11:04:45.030Z,49.40
2022-11-06T11:05:47.303Z,49.62
2022-11-06T11:06:49.511Z,49.43
2022-11-06T11:07:51.973Z,49.57
2022-11-06T11:08:54.503Z,49.48
2022-11-06T11:09:56.766Z,49.08
2022-11-06T11:11:05.219Z,49.10
2022-11-06T11:12:27.397Z,48.98
2022-11-06T11:13:29.691Z,48.25
2022-11-06T11:14:32.950Z,47.21
2022-11-06T11:15:44.925Z,46.89
2022-11-06T11:16:47.473Z,46.44
2022-11-06T11:18:19.110Z,47.01
2022-11-06T11:19:38.231Z,45.51
2022-11-06T11:20:46.167Z,45.49
2022-11-06T11:21:58.225Z,45.87
2022-11-06T11:23:08.099Z,45.70
2022-11-06T11:24:11.441Z,45.46
2022-11-06T11:25:25.815Z,46.27
2022-11-06T11:26:30.085Z,44.76
2022-11-06T11:27:37.909Z,45.25
2022-11-06T11:28:40.967Z,44.96
2022-11-06T11:29:50.147Z,45.01
2022-11-06T11:30:59.348Z,44.96
2022-11-06T11:32:05.214Z,45.07
2022-11-06T11:33:13.324Z,44.90
2022-11-06T11:34:38.161Z,45.51
2022-11-06T11:35:43.189Z,45.12
2022-11-06T11:36:58.926Z,45.46
2022-11-06T11:38:13.495Z,44.94
2022-11-06T11:39:18.688Z,45.43
2022-11-06T11:40:23.697Z,44.88
2022-11-06T11:41:25.995Z,45.12
2022-11-06T11:42:34.967Z,44.78
2022-11-06T11:43:37.418Z,45.05
2022-11-06T11:44:39.715Z,44.31
2022-11-06T11:45:41.964Z,43.88
2022-11-06T11:46:54.345Z,44.02
2022-11-06T11:48:13.257Z,43.85
2022-11-06T11:49:35.122Z,43.78
2022-11-06T11:50:37.384Z,43.30
2022-11-06T11:51:47.909Z,43.61
2022-11-06T11:52:58.033Z,43.96
2022-11-06T11:54:06.233Z,44.30
2022-11-06T11:55:17.730Z,44.43
2022-11-06T11:56:36.495Z,44.61
2022-11-06T11:57:48.989Z,44.80
2022-11-06T11:58:57.285Z,44.39
2022-11-06T12:00:06.293Z,44.07
2022-11-06T12:01:09.428Z,43.70
2022-11-06T12:02:27.752Z,43.10
2022-11-06T12:03:41.832Z,43.59
2022-11-06T12:04:47.950Z,43.67
2022-11-06T12:05:50.390Z,44.02
2022-11-06T12:06:56.769Z,44.12
2022-11-06T12:07:59.860Z,44.16
2022-11-06T12:09:02.221Z,44.04
2022-11-06T12:10:28.308Z,43.95
2022-11-06T12:11:31.064Z,43.65
2022-11-06T12:12:34.503Z,43.58
2022-11-06T12:13:36.883Z,43.57
2022-11-06T12:14:40.174Z,43.47
2022-11-06T12:15:57.637Z,43.53
2022-11-06T12:17:22.423Z,43.97
2022-11-06T12:18:32.771Z,43.82
2022-11-06T12:19:37.955Z,43.66
2022-11-06T12:20:49.764Z,43.58
2022-11-06T12:21:56.658Z,44.00
2022-11-06T12:23:01.128Z,43.84
2022-11-06T12:24:23.286Z,44.35
2022-11-06T12:25:41.344Z,44.11
2022-11-06T12:26:54.448Z,43.89
2022-11-06T12:28:03.229Z,44.21
2022-11-06T12:29:16.585Z,44.03
2022-11-06T12:30:19.979Z,44.22
2022-11-06T12:31:51.646Z,44.65
2022-11-06T12:33:15.993Z,44.70
2022-11-06T12:34:44.032Z,44.64
2022-11-06T12:35:59.107Z,44.63
2022-11-06T12:37:18.589Z,44.84
2022-11-06T12:38:44.503Z,45.05
2022-11-06T12:39:54.422Z,44.70
2022-11-06T12:41:06.879Z,44.84
2022-11-06T12:42:12.804Z,44.73
2022-11-06T12:43:27.429Z,44.93
2022-11-06T12:44:29.775Z,44.68
2022-11-06T12:45:57.480Z,44.68
2022-11-06T12:47:26.458Z,45.14
2022-11-06T12:48:28.887Z,45.02
2022-11-06T12:49:59.429Z,45.38
2022-11-06T12:51:04.267Z,45.00
2022-11-06T12:52:44.071Z,45.34
2022-11-06T12:54:01.645Z,44.95
2022-11-06T12:55:13.912Z,44.98
2022-11-06T12:56:23.450Z,44.72
2022-11-06T12:57:47.484Z,44.66
2022-11-06T12:59:16.791Z,44.98
2022-11-06T13:00:19.050Z,44.98
2022-11-06T13:02:01.997Z,45.09
2022-11-06T13:03:28.423Z,45.35
2022-11-06T13:04:49.968Z,45.07
2022-11-06T13:06:13.214Z,45.11
2022-11-06T13:07:29.979Z,45.39
2022-11-06T13:08:34.949Z,45.34
2022-11-06T13:10:03.527Z,45.25
2022-11-06T13:11:35.287Z,45.25
2022-11-06T13:13:20.061Z,45.45
2022-11-06T13:14:32.472Z,45.22
2022-11-06T13:15:48.588Z,45.35
2022-11-06T13:17:09.137Z,45.24
2022-11-06T13:18:21.447Z,45.22
2022-11-06T13:19:38.763Z,45.18
2022-11-06T13:21:06.719Z,45.35
2022-11-06T13:22:33.528Z,45.45
2022-11-06T13:23:42.999Z,45.14
2022-11-06T13:24:57.384Z,45.37
2022-11-06T13:26:02.354Z,44.91
2022-11-06T13:27:16.348Z,45.10
2022-11-06T13:28:46.277Z,45.38
2022-11-06T13:29:50.001Z,45.12
2022-11-06T13:30:53.750Z,45.06
2022-11-06T13:32:00.442Z,45.03
2022-11-06T13:33:28.518Z,45.21
2022-11-06T13:34:35.266Z,45.07
2022-11-06T13:35:41.053Z,45.18
2022-11-06T13:36:44.072Z,45.11
2022-11-06T13:37:51.119Z,45.19
2022-11-06T13:39:07.723Z,45.36
2022-11-06T13:40:41.889Z,45.13
2022-11-06T13:41:44.072Z,45.45
2022-11-06T13:43:12.125Z,45.58
2022-11-06T13:44:17.945Z,45.40
2022-11-06T13:45:21.859Z,45.33
2022-11-06T13:46:41.963Z,45.48
2022-11-06T13:48:15.435Z,45.40
2022-11-06T13:49:29.396Z,45.37
2022-11-06T13:51:01.153Z,45.80
2022-11-06T13:52:38.183Z,45.73
2022-11-06T13:54:10.335Z,45.70
2022-11-06T13:55:17.919Z,45.51
2022-11-06T13:56:47.353Z,45.92
2022-11-06T13:58:20.502Z,45.82
2022-11-06T13:59:37.968Z,45.80
2022-11-06T14:01:15.118Z,46.00
2022-11-06T14:03:10.606Z,46.05
2022-11-06T14:04:37.425Z,46.01
2022-11-06T14:05:45.725Z,46.32
2022-11-06T14:06:51.767Z,46.25
2022-11-06T14:07:55.222Z,46.54
2022-11-06T14:09:02.140Z,46.63
2022-11-06T14:10:05.452Z,46.62
2022-11-06T14:11:17.775Z,46.89
2022-11-06T14:12:22.922Z,46.71
2022-11-06T14:13:28.057Z,46.80
2022-11-06T14:14:33.023Z,46.54
2022-11-06T14:15:38.581Z,46.50
2022-11-06T14:16:47.728Z,46.35
2022-11-06T14:18:22.036Z,46.83
2022-11-06T14:19:27.110Z,46.54
2022-11-06T14:20:39.552Z,46.63
2022-11-06T14:21:49.666Z,46.74
2022-11-06T14:22:51.941Z,46.98
2022-11-06T14:24:05.960Z,46.85
2022-11-06T14:25:32.652Z,47.23
2022-11-06T14:26:49.947Z,47.12
2022-11-06T14:28:03.081Z,47.22
2022-11-06T14:29:26.823Z,47.38
2022-11-06T14:31:09.999Z,47.17
2022-11-06T14:32:32.015Z,47.53
2022-11-06T14:33:59.032Z,47.45
2022-11-06T14:35:31.071Z,47.42
2022-11-06T14:36:36.072Z,47.42
2022-11-06T14:37:47.133Z,47.50
2022-11-06T14:38:50.775Z,47.46
2022-11-06T14:39:55.717Z,47.74
2022-11-06T14:40:58.739Z,47.71
2022-11-06T14:42:01.704Z,47.97
2022-11-06T14:43:26.688Z,48.21
2022-11-06T14:44:56.690Z,48.25
2022-11-06T14:46:04.430Z,48.16
2022-11-06T14:47:19.841Z,48.09
2022-11-06T14:48:42.378Z,48.08